createdAt,value
2022-08-25T00:05:38.062Z,67.89
2022-08-25T00:08:51.557Z,67.46
2022-08-25T00:14:26.565Z,67.24
2022-08-25T00:16:58.673Z,66.62
2022-08-25T00:19:33.699Z,67.12
2022-08-25T00:22:20.955Z,66.82
2022-08-25T00:24:52.387Z,66.86
2022-08-25T00:27:36.188Z,66.86
2022-08-25T00:30:30.958Z,66.78
2022-08-25T00:33:05.475Z,66.81
2022-08-25T00:35:39.996Z,66.66
2022-08-25T00:39:04.524Z,66.58
2022-08-25T00:44:18.641Z,66.91
2022-08-25T00:48:56.965Z,67.18
2022-08-25T01:02:31.344Z,68.12
2022-08-25T01:16:00.534Z,68.85
2022-08-25T01:22:01.700Z,69.92
2022-08-25T01:24:44.652Z,69.85
2022-08-25T01:31:57.786Z,70.44
2022-08-25T01:34:57.749Z,70.65
2022-08-25T01:44:58.068Z,72.39
2022-08-25T01:50:10.969Z,74.00
2022-08-25T01:52:57.849Z,75.01
2022-08-25T01:55:29.373Z,75.32
2022-08-25T01:57:59.938Z,76.17
2022-08-25T02:01:06.224Z,76.26
2022-08-25T02:04:01.133Z,77.37
2022-08-25T02:07:01.438Z,77.83
2022-08-25T02:09:29.967Z,77.75
2022-08-25T02:11:58.421Z,78.04
2022-08-25T02:17:16.764Z,78.22
2022-08-25T02:20:06.886Z,78.94
2022-08-25T02:23:00.237Z,79.25
2022-08-25T02:28:59.476Z,80.09
2022-08-25T02:31:48.193Z,80.38
2022-08-25T02:34:16.761Z,79.97
2022-08-25T02:36:54.884Z,80.78
2022-08-25T02:39:31.104Z,80.70
2022-08-25T02:42:00.849Z,81.06
2022-08-25T02:44:29.173Z,81.21
2022-08-25T02:46:58.158Z,81.39
2022-08-25T02:49:29.820Z,81.36
2022-08-25T02:52:01.226Z,81.48
2022-08-25T02:54:30.424Z,81.96
2022-08-25T02:56:58.811Z,82.07
2022-08-25T02:59:28.202Z,82.09
2022-08-25T03:01:59.650Z,82.54
2022-08-25T03:04:32.216Z,82.39
2022-08-25T03:07:00.553Z,82.77
2022-08-25T03:09:28.988Z,82.78
2022-08-25T03:12:01.604Z,82.95
2022-08-25T03:14:29.821Z,83.19
2022-08-25T03:17:03.182Z,83.22
2022-08-25T03:19:48.136Z,83.45
2022-08-25T03:22:26.523Z,83.53
2022-08-25T03:25:28.232Z,83.74
2022-08-25T03:27:59.352Z,83.88
2022-08-25T03:30:31.571Z,84.23
2022-08-25T03:32:59.865Z,84.40
2022-08-25T03:35:31.578Z,84.29
2022-08-25T03:38:01.381Z,84.55
2022-08-25T03:40:29.959Z,84.38
2022-08-25T03:43:01.076Z,84.87
2022-08-25T03:45:29.444Z,85.04
2022-08-25T03:47:58.202Z,84.85
2022-08-25T03:50:27.382Z,84.82
2022-08-25T03:53:02.667Z,84.95
2022-08-25T03:55:30.946Z,85.26
2022-08-25T03:58:00.957Z,85.34
2022-08-25T04:00:32.295Z,85.31
2022-08-25T04:03:00.175Z,86.13
2022-08-25T04:05:28.777Z,85.65
2022-08-25T04:08:05.436Z,85.27
2022-08-25T04:10:34.710Z,85.59
2022-08-25T04:13:05.442Z,85.64
2022-08-25T04:15:36.212Z,85.59
2022-08-25T04:18:04.956Z,85.12
2022-08-25T04:20:33.359Z,85.21
2022-08-25T04:23:02.198Z,85.47
2022-08-25T04:25:30.543Z,85.04
2022-08-25T04:27:59.216Z,85.18
2022-08-25T04:30:29.841Z,85.06
2022-08-25T04:32:58.642Z,85.15
2022-08-25T04:35:29.712Z,85.00
2022-08-25T04:38:13.528Z,85.01
2022-08-25T04:40:47.837Z,85.22
2022-08-25T04:43:16.534Z,84.92
2022-08-25T04:45:57.297Z,85.24
2022-08-25T04:48:31.203Z,85.08
2022-08-25T04:51:02.415Z,85.05
2022-08-25T04:53:30.628Z,84.82
2022-08-25T04:56:23.781Z,85.47
2022-08-25T05:02:29.443Z,84.82
2022-08-25T05:04:58.481Z,85.24
2022-08-25T05:07:29.813Z,85.12
2022-08-25T05:09:57.934Z,85.36
2022-08-25T05:12:29.513Z,85.47
2022-08-25T05:15:30.306Z,85.14
2022-08-25T05:18:00.944Z,85.80
2022-08-25T05:20:32.247Z,85.67
2022-08-25T05:23:00.499Z,85.78
2022-08-25T05:25:29.990Z,85.61
2022-08-25T05:27:58.515Z,85.93
2022-08-25T05:30:32.754Z,85.91
2022-08-25T05:33:16.433Z,86.33
2022-08-25T05:35:46.359Z,86.06
2022-08-25T05:38:35.948Z,86.22
2022-08-25T05:41:09.361Z,86.67
2022-08-25T05:43:40.941Z,86.46
2022-08-25T05:46:34.138Z,86.67
2022-08-25T05:49:28.438Z,86.55
2022-08-25T05:52:18.225Z,86.50
2022-08-25T05:54:54.905Z,86.71
2022-08-25T05:57:28.622Z,86.64
2022-08-25T05:59:56.861Z,86.49
2022-08-25T06:02:48.063Z,86.54
2022-08-25T06:05:27.627Z,86.45
2022-08-25T06:08:00.904Z,86.66
2022-08-25T06:10:32.337Z,86.97
2022-08-25T06:13:08.885Z,86.96
2022-08-25T06:15:37.771Z,86.77
2022-08-25T06:18:06.642Z,86.60
2022-08-25T06:20:35.007Z,86.76
2022-08-25T06:23:10.487Z,86.62
2022-08-25T06:25:38.748Z,86.59
2022-08-25T06:28:07.458Z,86.76
2022-08-25T06:30:35.797Z,86.88
2022-08-25T06:33:11.937Z,86.76
2022-08-25T06:35:46.635Z,86.51
2022-08-25T06:38:19.834Z,86.27
2022-08-25T06:40:54.793Z,86.22
2022-08-25T06:43:28.470Z,86.44
2022-08-25T06:46:01.114Z,86.20
2022-08-25T06:48:29.561Z,86.05
2022-08-25T06:51:01.009Z,85.91
2022-08-25T06:53:29.413Z,85.98
2022-08-25T06:56:08.724Z,85.68
2022-08-25T06:58:37.781Z,85.50
2022-08-25T07:01:33.035Z,85.01
2022-08-25T07:04:12.903Z,85.46
2022-08-25T07:06:42.267Z,85.52
2022-08-25T07:09:15.592Z,85.81
2022-08-25T07:11:45.375Z,85.87
2022-08-25T07:17:00.569Z,85.59
2022-08-25T07:19:32.209Z,85.95
2022-08-25T07:22:02.149Z,85.82
2022-08-25T07:24:30.408Z,86.06
2022-08-25T07:27:03.518Z,85.61
2022-08-25T07:29:33.656Z,86.02
2022-08-25T07:32:06.441Z,85.62
2022-08-25T07:34:58.868Z,86.01
2022-08-25T07:37:48.054Z,86.14
2022-08-25T07:40:22.609Z,85.96
2022-08-25T07:44:39.042Z,86.00
2022-08-25T07:46:01.598Z,84.76
2022-08-25T07:48:32.935Z,84.98
2022-08-25T07:51:06.341Z,83.26
2022-08-25T07:53:36.918Z,84.27
2022-08-25T07:56:26.057Z,84.08
2022-08-25T07:58:59.724Z,84.13
2022-08-25T08:01:30.608Z,84.52
2022-08-25T08:04:03.652Z,84.40
2022-08-25T08:06:32.133Z,84.11
2022-08-25T08:09:01.238Z,84.12
2022-08-25T08:11:34.760Z,84.21
2022-08-25T08:14:13.816Z,83.95
2022-08-25T08:17:00.355Z,83.18
2022-08-25T08:19:31.787Z,82.70
2022-08-25T08:22:14.717Z,82.48
2022-08-25T08:24:54.787Z,82.33
2022-08-25T08:27:26.139Z,82.62
2022-08-25T08:30:04.928Z,83.16
2022-08-25T08:32:59.902Z,84.03
2022-08-25T08:35:30.751Z,84.58
2022-08-25T08:38:01.993Z,84.64
2022-08-25T08:40:32.911Z,83.34
2022-08-25T08:43:03.312Z,82.62
2022-08-25T08:45:40.157Z,83.25
2022-08-25T08:48:38.151Z,82.91
2022-08-25T08:51:33.361Z,81.84
2022-08-25T08:54:30.478Z,82.30
2022-08-25T08:57:17.806Z,81.97
2022-08-25T09:03:22.438Z,82.02
2022-08-25T09:06:00.084Z,82.91
2022-08-25T09:08:31.862Z,83.14
2022-08-25T09:11:16.355Z,82.93
2022-08-25T09:14:05.135Z,83.70
2022-08-25T09:17:30.834Z,84.21
2022-08-25T09:20:39.603Z,84.40
2022-08-25T09:23:28.267Z,84.16
2022-08-25T09:26:21.020Z,84.74
2022-08-25T09:29:03.182Z,84.98
2022-08-25T09:31:45.947Z,85.73
2022-08-25T09:34:23.300Z,85.42
2022-08-25T09:37:01.275Z,86.07
2022-08-25T09:39:33.552Z,86.37
2022-08-25T09:42:01.829Z,86.36
2022-08-25T09:44:42.275Z,86.38
2022-08-25T09:47:19.827Z,86.29
2022-08-25T09:50:01.799Z,86.64
2022-08-25T09:52:41.783Z,86.19
2022-08-25T09:55:35.358Z,86.00
2022-08-25T09:58:17.102Z,85.90
2022-08-25T10:00:48.217Z,85.89
2022-08-25T10:03:36.454Z,85.15
2022-08-25T10:06:13.298Z,85.40
2022-08-25T10:08:44.803Z,85.47
2022-08-25T10:11:37.267Z,84.92
2022-08-25T10:14:30.385Z,84.73
2022-08-25T10:17:30.064Z,84.64
2022-08-25T10:20:13.258Z,84.91
2022-08-25T10:22:43.775Z,85.28
2022-08-25T10:25:22.343Z,85.61
2022-08-25T10:28:18.474Z,85.63
2022-08-25T10:31:16.217Z,85.57
2022-08-25T10:34:04.959Z,86.20
2022-08-25T10:36:47.101Z,86.71
2022-08-25T10:39:34.261Z,86.92
2022-08-25T10:42:42.762Z,87.07
2022-08-25T10:46:01.624Z,86.98
2022-08-25T10:52:10.318Z,87.14
2022-08-25T10:54:59.160Z,87.50
2022-08-25T10:57:59.939Z,87.40
2022-08-25T11:00:40.406Z,87.50
2022-08-25T11:03:39.344Z,87.24
2022-08-25T11:06:24.989Z,87.67
2022-08-25T11:09:01.832Z,87.52
2022-08-25T11:11:43.886Z,87.98
2022-08-25T11:14:34.724Z,87.97
2022-08-25T11:17:41.937Z,88.16
2022-08-25T11:20:26.802Z,88.49
2022-08-25T11:24:00.468Z,88.33
2022-08-25T11:26:38.885Z,88.96
2022-08-25T11:30:07.882Z,89.31
2022-08-25T11:32:57.770Z,89.28
2022-08-25T11:35:39.418Z,89.13
2022-08-25T11:38:30.075Z,89.12
2022-08-25T11:41:32.326Z,89.07
2022-08-25T11:44:11.569Z,88.93
2022-08-25T11:47:01.355Z,87.14
2022-08-25T11:49:58.004Z,87.39
2022-08-25T11:52:44.592Z,86.39
2022-08-25T11:56:05.186Z,85.33
2022-08-25T11:59:06.159Z,85.33
2022-08-25T12:02:03.314Z,84.75
2022-08-25T12:05:00.979Z,84.50
2022-08-25T12:08:09.185Z,84.51
2022-08-25T12:11:10.468Z,84.05
2022-08-25T12:13:43.844Z,84.53
2022-08-25T12:16:39.355Z,86.09
2022-08-25T12:19:29.130Z,87.25
2022-08-25T12:22:03.950Z,87.75
2022-08-25T12:24:47.819Z,88.60
2022-08-25T12:27:33.842Z,88.66
2022-08-25T12:30:26.279Z,88.81
2022-08-25T12:33:26.547Z,90.33
2022-08-25T12:36:11.209Z,90.54
2022-08-25T12:38:52.105Z,91.04
2022-08-25T12:41:33.683Z,91.16
2022-08-25T12:44:35.739Z,92.68
2022-08-25T12:47:43.035Z,93.75
2022-08-25T12:50:41.124Z,93.68
2022-08-25T12:53:29.059Z,94.33
2022-08-25T12:56:03.887Z,93.72
2022-08-25T12:59:00.143Z,94.51
2022-08-25T13:01:38.669Z,94.94
2022-08-25T13:04:15.967Z,95.06
2022-08-25T13:07:15.473Z,95.88
2022-08-25T13:10:02.777Z,96.84
2022-08-25T13:12:53.008Z,97.47
2022-08-25T13:15:38.308Z,97.43
2022-08-25T13:18:32.661Z,97.56
2022-08-25T13:21:57.318Z,97.04
2022-08-25T13:24:40.255Z,97.45
2022-08-25T13:27:41.645Z,97.95
2022-08-25T13:30:38.042Z,98.58
2022-08-25T13:33:34.356Z,99.27
2022-08-25T13:36:34.775Z,98.42
2022-08-25T13:39:58.814Z,98.65
2022-08-25T13:42:30.810Z,99.47
2022-08-25T13:45:31.793Z,99.87
2022-08-25T13:51:35.487Z,99.76
2022-08-25T13:52:57.257Z,99.93
2022-08-25T13:54:32.437Z,100.00
2022-08-25T13:57:34.710Z,100.00
2022-08-25T14:01:00.734Z,100.00
2022-08-25T14:06:35.081Z,99.18
2022-08-25T14:12:00.290Z,100.00
2022-08-25T14:14:33.796Z,100.00
2022-08-25T14:17:16.338Z,100.00
2022-08-25T14:19:50.541Z,100.00
2022-08-25T14:22:21.917Z,100.00
2022-08-25T14:25:02.509Z,100.00
2022-08-25T14:27:38.913Z,100.00
2022-08-25T14:30:29.241Z,100.00
2022-08-25T14:32:59.517Z,100.00
2022-08-25T14:35:28.362Z,100.00
2022-08-25T14:38:00.103Z,100.00
2022-08-25T15:32:13.796Z,100.00
2022-08-25T15:59:59.184Z,100.00
2022-08-25T16:03:02.210Z,100.00
2022-08-25T16:12:46.845Z,100.00
2022-08-25T16:16:09.055Z,100.00
2022-08-25T16:22:04.459Z,98.32
2022-08-25T16:25:09.268Z,99.71
2022-08-25T16:36:30.955Z,98.75
2022-08-25T16:41:59.390Z,98.37
2022-08-25T16:48:03.884Z,98.70
2022-08-25T16:52:02.060Z,98.81
2022-08-25T16:58:06.743Z,96.99
2022-08-25T17:01:11.644Z,96.83
2022-08-25T17:04:01.441Z,96.52
2022-08-25T17:06:31.592Z,96.36
2022-08-25T17:10:12.572Z,95.42
2022-08-25T17:12:35.188Z,95.21
2022-08-25T17:15:06.750Z,95.12
2022-08-25T17:17:37.243Z,94.22
2022-08-25T17:23:30.329Z,94.46
2022-08-25T17:26:05.094Z,93.34
2022-08-25T17:31:31.247Z,92.82
2022-08-25T17:37:33.608Z,93.82
2022-08-25T17:40:34.653Z,93.32
2022-08-25T17:58:35.972Z,90.53
2022-08-25T18:08:35.074Z,90.42
2022-08-25T18:11:36.490Z,88.28
2022-08-25T18:14:30.366Z,89.20
2022-08-25T18:17:33.661Z,88.84
2022-08-25T18:26:36.062Z,85.79
2022-08-25T18:29:31.723Z,85.16
2022-08-25T18:32:12.675Z,84.99
2022-08-25T18:35:29.072Z,84.44
2022-08-25T18:45:35.616Z,83.29
2022-08-25T18:51:33.094Z,82.79
2022-08-25T18:54:02.813Z,82.92
2022-08-25T18:56:32.532Z,83.22
2022-08-25T18:59:13.503Z,82.59
2022-08-25T19:02:32.214Z,82.91
2022-08-25T19:05:04.842Z,82.55
2022-08-25T19:10:36.969Z,83.38
2022-08-25T19:17:27.591Z,81.50
2022-08-25T19:29:32.559Z,82.05
2022-08-25T19:32:29.652Z,81.11
2022-08-25T19:35:33.035Z,80.42
2022-08-25T19:38:35.583Z,80.87
2022-08-25T20:01:30.523Z,78.89
2022-08-25T20:19:34.129Z,77.53
2022-08-25T20:22:04.794Z,77.63
2022-08-25T20:28:29.069Z,78.00
2022-08-25T20:34:29.213Z,78.58
2022-08-25T20:40:31.635Z,78.44
2022-08-25T20:43:32.938Z,79.32
2022-08-25T20:46:29.380Z,79.22
2022-08-25T20:49:28.869Z,79.23
2022-08-25T20:52:42.416Z,79.92
2022-08-25T20:55:30.125Z,79.99
2022-08-25T20:58:32.737Z,78.54
2022-08-25T21:01:33.608Z,79.04
2022-08-25T21:07:35.661Z,78.50
2022-08-25T21:13:56.484Z,77.12
2022-08-25T21:17:06.382Z,76.94
2022-08-25T21:19:38.555Z,77.14
2022-08-25T21:22:33.289Z,77.55
2022-08-25T21:28:36.863Z,76.64
2022-08-25T21:31:36.533Z,75.50
2022-08-25T21:38:34.130Z,74.04
2022-08-25T21:41:40.105Z,73.17
2022-08-25T21:44:32.182Z,73.23
2022-08-25T21:53:51.375Z,71.95
2022-08-25T21:56:41.388Z,71.37
2022-08-25T23:36:42.319Z,65.21
2022-08-25T23:50:04.599Z,66.40
